createdAt,value
2023-02-17T00:09:31.819Z,19.184
2023-02-17T00:24:33.821Z,19.173
2023-02-17T00:39:35.741Z,19.364
2023-02-17T00:54:37.663Z,19.469
2023-02-17T01:09:39.670Z,19.464
2023-02-17T01:24:41.603Z,19.644
2023-02-17T01:39:43.499Z,19.632
2023-02-17T01:54:45.438Z,18.867
2023-02-17T02:09:47.411Z,18.95
2023-02-17T02:24:49.416Z,19.657
2023-02-17T02:39:51.340Z,19.816
2023-02-17T02:54:53.197Z,19.596
2023-02-17T03:09:55.131Z,19.8
2023-02-17T03:24:57.051Z,19.202
2023-02-17T03:39:58.871Z,19.311
2023-02-17T03:55:00.825Z,19.536
2023-02-17T04:10:05.503Z,19.989
2023-02-17T04:25:08.194Z,19.18
2023-02-17T04:40:10.118Z,18.811
2023-02-17T04:55:12.054Z,19.031
2023-02-17T05:10:14.001Z,19.127
2023-02-17T05:25:15.959Z,19.023
2023-02-17T05:40:17.885Z,19.084
2023-02-17T05:55:19.808Z,19.198
2023-02-17T06:10:21.753Z,19.346
2023-02-17T06:25:23.667Z,19.141
2023-02-17T06:40:27.987Z,19.942
2023-02-17T06:55:30.677Z,18.962
2023-02-17T07:10:32.585Z,18.704
2023-02-17T07:25:34.496Z,18.928
2023-02-17T07:40:36.367Z,19.432
2023-02-17T07:55:38.281Z,18.979
2023-02-17T08:10:40.216Z,19.242
2023-02-17T08:25:42.104Z,19.811
2023-02-17T08:40:44.044Z,18.973
2023-02-17T08:55:49.523Z,19.314
2023-02-17T09:10:51.800Z,19.436
2023-02-17T09:25:53.715Z,18.897
2023-02-17T09:40:55.650Z,19.036
2023-02-17T09:55:57.698Z,19.43
2023-02-17T10:10:59.727Z,18.721
2023-02-17T10:26:01.634Z,19.208
2023-02-17T10:41:03.520Z,19.123
2023-02-17T10:56:05.941Z,18.712
2023-02-17T11:11:07.991Z,18.95
2023-02-17T11:26:09.932Z,18.815
2023-02-17T11:41:11.895Z,18.709
2023-02-17T11:56:13.848Z,19.068
2023-02-17T12:11:15.751Z,18.517
2023-02-17T12:26:17.711Z,18.81
2023-02-17T12:41:19.847Z,18.95
2023-02-17T12:56:21.766Z,18.386
2023-02-17T13:11:23.706Z,18.573
2023-02-17T13:26:25.649Z,18.929
2023-02-17T13:41:27.643Z,18.279
2023-02-17T13:56:29.620Z,18.747
2023-02-17T14:11:33.092Z,19.083
2023-02-17T14:26:35.111Z,18.276
2023-02-17T14:41:37.151Z,18.608
2023-02-17T14:56:39.095Z,19.11
2023-02-17T15:11:41.139Z,18.504
2023-02-17T15:26:43.196Z,18.52
2023-02-17T15:41:45.192Z,18.233
2023-02-17T15:56:47.102Z,19.048
2023-02-17T16:11:48.999Z,18.076
2023-02-17T16:26:50.889Z,18.635
2023-02-17T16:41:52.856Z,18.111
2023-02-17T16:56:54.795Z,18.152
2023-02-17T17:11:56.776Z,18.26
2023-02-17T17:26:58.701Z,18.232
2023-02-17T17:42:00.632Z,18.6
2023-02-17T17:57:02.566Z,18.234
2023-02-17T18:12:04.470Z,18.952
2023-02-17T18:27:06.394Z,18.367
2023-02-17T18:42:08.332Z,18.396
2023-02-17T18:57:10.275Z,19.086
2023-02-17T19:12:13.224Z,20.56
2023-02-17T19:27:15.292Z,20.901
2023-02-17T19:42:17.327Z,20.666
2023-02-17T19:57:19.243Z,20.387
2023-02-17T20:12:21.210Z,20.458
2023-02-17T20:27:23.208Z,20.51
2023-02-17T20:42:25.391Z,20.412
2023-02-17T20:57:27.311Z,20.372
2023-02-17T21:12:29.070Z,20.308
2023-02-17T21:27:31.025Z,20.263
2023-02-17T21:42:32.929Z,20.144
2023-02-17T21:57:34.836Z,20.063
2023-02-17T22:12:36.754Z,19.988
2023-02-17T22:27:38.650Z,19.997
2023-02-17T22:42:40.570Z,20.026
2023-02-17T22:57:42.554Z,20.197
2023-02-17T23:12:44.509Z,19.872
2023-02-17T23:27:46.414Z,19.718
2023-02-17T23:42:48.382Z,20.034
2023-02-17T23:57:50.332Z,20.823
